createdAt,value
2023-05-06T00:24:37.435Z,14.82
2023-05-06T00:53:24.262Z,14.56
2023-05-06T01:22:10.988Z,14.35
2023-05-06T01:51:02.800Z,14.2
2023-05-06T02:19:46.507Z,14.03
2023-05-06T02:48:38.456Z,13.64
2023-05-06T03:17:28.103Z,13.38
2023-05-06T03:46:16.959Z,13.09
2023-05-06T04:14:57.485Z,12.99
2023-05-06T04:43:44.057Z,13.18
2023-05-06T05:12:29.589Z,13.75
2023-05-06T05:41:26.520Z,14.22
2023-05-06T06:10:17.700Z,14.79
2023-05-06T06:38:53.315Z,21.46
2023-05-06T07:08:10.798Z,21.88
2023-05-06T07:36:41.002Z,18.25
2023-05-06T08:05:10.869Z,19.55
2023-05-06T08:33:48.625Z,20.82
2023-05-06T09:02:36.356Z,21.59
2023-05-06T09:31:06.455Z,21.48
2023-05-06T09:59:51.399Z,22.28
2023-05-06T10:28:41.739Z,22.63
2023-05-06T10:57:12.716Z,22.25
2023-05-06T11:25:54.206Z,22.66
2023-05-06T11:54:28.654Z,22.84
2023-05-06T12:23:09.776Z,22.93
2023-05-06T12:51:57.289Z,23.42
2023-05-06T13:20:40.780Z,23.68
2023-05-06T13:49:35.614Z,24.5
2023-05-06T14:18:27.042Z,24.84
2023-05-06T14:46:51.755Z,24.95
2023-05-06T15:15:18.819Z,24.91
2023-05-06T15:44:00.259Z,24.53
2023-05-06T16:12:49.572Z,24.19
2023-05-06T16:41:24.565Z,23.39
2023-05-06T17:09:57.964Z,22.84
2023-05-06T17:38:41.654Z,22.16
2023-05-06T18:07:18.328Z,21.44
2023-05-06T18:35:48.968Z,20.72
2023-05-06T19:04:26.136Z,19.25
2023-05-06T19:33:05.323Z,18.57
2023-05-06T20:01:43.063Z,17.77
2023-05-06T20:30:21.550Z,17.3
2023-05-06T20:58:28.147Z,16.78
2023-05-06T21:27:00.985Z,16.58
2023-05-06T21:55:43.301Z,15.91
2023-05-06T22:24:29.445Z,15.56
2023-05-06T22:53:16.258Z,15.26
2023-05-06T23:21:46.532Z,14.9
2023-05-06T23:50:16.957Z,14.85
